Time;durP1;ratioP1;P1;durP2;ratioP2;P2;SDS_P1;SDS_P2;PMS_P1;PMS_P2;Temp;Humidity;BMP_temperature;BMP_pressure;BME280_temperature;BME280_humidity;BME280_pressure;Samples;Min_cycle;Max_cycle;Signal;HPM_P1;HPM_P2
2022/01/26 00:08:26;;;;;;;35.92;18.17;;;;;;;-1.63;100.00;102076.50;4958451;29;20496;-72
2022/01/26 00:11:12;;;;;;;33.35;17.20;;;;;;;-1.37;100.00;102084.75;4881931;29;20090;-73
2022/01/26 00:14:00;;;;;;;33.97;17.02;;;;;;;-1.21;100.00;102081.28;4881543;29;20033;-73
2022/01/26 00:16:45;;;;;;;30.38;15.85;;;;;;;-1.64;100.00;102087.59;4951970;28;20047;-71
2022/01/26 00:19:47;;;;;;;32.22;16.80;;;;;;;-1.57;100.00;102084.56;4959100;29;20101;-73
2022/01/26 00:28:57;;;;;;;35.20;17.35;;;;;;;-1.15;100.00;102079.94;4957705;29;20055;-72
2022/01/26 00:41:19;;;;;;;31.88;17.20;;;;;;;-1.33;100.00;102084.13;4957990;29;20088;-73
2022/01/26 00:44:06;;;;;;;29.75;15.50;;;;;;;-1.64;100.00;102087.59;4957622;29;20027;-72
2022/01/26 00:52:06;;;;;;;30.40;16.20;;;;;;;-1.65;100.00;102081.56;4992844;23;20059;-71
2022/01/26 00:54:52;;;;;;;32.47;16.58;;;;;;;-1.63;100.00;102079.06;4957798;29;20368;-72
2022/01/26 00:57:41;;;;;;;35.15;16.77;;;;;;;-1.53;100.00;102084.78;4958211;28;20031;-73
2022/01/26 01:00:28;;;;;;;28.58;15.95;;;;;;;-1.80;100.00;102082.44;4956709;28;20030;-72
2022/01/26 01:03:14;;;;;;;32.72;17.20;;;;;;;-1.49;100.00;102080.69;4957037;29;20046;-74
2022/01/26 01:06:05;;;;;;;32.95;16.23;;;;;;;-1.50;100.00;102076.34;4957792;28;20035;-73
2022/01/26 01:08:54;;;;;;;32.90;16.60;;;;;;;-1.37;100.00;102074.47;4930508;29;20050;-73
2022/01/26 01:18:09;;;;;;;31.45;16.23;;;;;;;-1.47;100.00;102050.81;5478865;23;20066;-72
2022/01/26 01:27:24;;;;;;;31.90;16.63;;;;;;;-1.61;100.00;102054.38;4957299;28;20377;-72
2022/01/26 01:33:09;;;;;;;33.90;16.67;;;;;;;-1.58;100.00;102042.53;4957701;28;20345;-73
2022/01/26 01:35:54;;;;;;;34.58;16.25;;;;;;;-1.46;100.00;102044.84;4944171;28;20038;-72
2022/01/26 01:38:43;;;;;;;33.13;16.17;;;;;;;-1.91;100.00;102052.72;4956788;29;20102;-73
2022/01/26 01:41:28;;;;;;;29.95;15.10;;;;;;;-1.80;100.00;102052.47;4943508;28;20109;-72
2022/01/26 01:44:15;;;;;;;30.13;15.80;;;;;;;-1.60;100.00;102043.28;4957138;29;20039;-73
2022/01/26 01:47:02;;;;;;;34.60;16.70;;;;;;;-1.71;100.00;102044.38;4957083;28;20428;-71
2022/01/26 01:49:48;;;;;;;31.38;15.63;;;;;;;-1.80;100.00;102043.91;4956630;29;20041;-73
2022/01/26 01:52:34;;;;;;;30.95;16.08;;;;;;;-1.67;100.00;102038.59;4943229;29;20122;-72
2022/01/26 01:57:47;;;;;;;34.53;16.80;;;;;;;-1.42;100.00;102027.09;5282778;23;20047;-73
2022/01/26 02:00:33;;;;;;;33.33;16.13;;;;;;;-1.60;100.00;102020.16;4949399;29;20027;-72
2022/01/26 02:03:19;;;;;;;32.15;16.25;;;;;;;-1.29;100.00;102014.06;4943209;29;20097;-72
2022/01/26 02:06:04;;;;;;;29.45;15.18;;;;;;;-1.60;100.00;102012.44;4957517;28;20530;-74
2022/01/26 02:08:50;;;;;;;38.95;16.70;;;;;;;-1.60;100.00;102009.88;4955767;29;20035;-72
2022/01/26 02:11:50;;;;;;;32.28;15.48;;;;;;;-1.89;100.00;101998.06;4943127;29;20417;-73
2022/01/26 02:14:40;;;;;;;27.08;15.27;;;;;;;-1.62;100.00;102001.19;4957317;28;20027;-73
2022/01/26 03:03:59;;;;;;;29.92;13.68;;;;;;;-1.83;100.00;101997.50;4956521;28;20441;-73
2022/01/26 03:10:05;;;;;;;28.65;14.68;;;;;;;-1.74;100.00;101991.19;4936067;29;20380;-73
2022/01/26 03:13:03;;;;;;;30.95;13.50;;;;;;;-1.85;100.00;101992.28;4955809;29;20031;-73
2022/01/26 03:15:55;;;;;;;28.77;13.73;;;;;;;-1.83;100.00;101987.25;4941696;28;20031;-73
2022/01/26 03:28:22;;;;;;;30.00;14.55;;;;;;;-1.91;100.00;101994.56;4959287;29;20028;-72
2022/01/26 03:31:48;;;;;;;26.90;13.60;;;;;;;-1.73;100.00;101994.63;4960527;28;20356;-73
2022/01/26 03:40:30;;;;;;;28.52;13.60;;;;;;;-1.58;100.00;101998.88;5865336;23;22945;-71
2022/01/26 03:43:16;;;;;;;25.00;13.27;;;;;;;-1.58;100.00;102011.72;4959316;29;20463;-72
2022/01/26 03:46:02;;;;;;;24.13;12.77;;;;;;;-1.41;100.00;102007.44;4958609;28;20039;-72
2022/01/26 03:48:48;;;;;;;26.45;14.10;;;;;;;-1.47;100.00;102005.44;4946607;28;20034;-72
2022/01/26 03:51:35;;;;;;;24.77;13.18;;;;;;;-1.54;100.00;102007.59;4958065;29;20100;-72
2022/01/26 03:54:21;;;;;;;25.42;13.85;;;;;;;-1.48;100.00;102005.34;4959604;28;20444;-73
2022/01/26 03:57:07;;;;;;;26.95;13.40;;;;;;;-1.53;100.00;101997.41;4959076;28;20038;-72
2022/01/26 03:59:53;;;;;;;29.65;14.25;;;;;;;-1.63;100.00;101997.75;4958122;29;20179;-71
2022/01/26 04:02:44;;;;;;;25.30;14.00;;;;;;;-1.55;100.00;102001.59;4958058;29;20110;-72
2022/01/26 04:05:30;;;;;;;24.70;13.27;;;;;;;-1.60;100.00;101994.47;4958867;28;20345;-73
2022/01/26 04:08:22;;;;;;;28.35;13.00;;;;;;;-1.60;100.00;101997.03;4944075;29;20118;-71
2022/01/26 04:14:07;;;;;;;25.13;13.30;;;;;;;-1.38;100.00;101994.72;4958344;29;20035;-72
2022/01/26 04:16:52;;;;;;;24.45;12.88;;;;;;;-1.41;100.00;101992.03;4931916;29;20061;-72
2022/01/26 04:19:40;;;;;;;23.73;13.10;;;;;;;-1.43;99.88;101989.38;4958103;29;20038;-73
2022/01/26 04:22:34;;;;;;;24.95;13.07;;;;;;;-1.41;99.50;101990.31;4944976;29;20027;-73
2022/01/26 04:25:24;;;;;;;24.95;12.82;;;;;;;-1.36;99.91;101988.00;4959172;28;20468;-72
2022/01/26 04:28:15;;;;;;;26.45;13.23;;;;;;;-1.30;98.86;101993.41;4959005;28;20114;-71
2022/01/26 04:31:04;;;;;;;29.40;13.82;;;;;;;-1.37;99.25;101997.38;4958464;29;20025;-72
2022/01/26 04:33:51;;;;;;;26.23;13.35;;;;;;;-1.42;100.00;101993.69;4958040;28;20035;-73
2022/01/26 04:36:47;;;;;;;25.17;12.90;;;;;;;-1.34;98.24;101986.34;4958936;28;20038;-71
2022/01/26 04:39:40;;;;;;;26.15;12.43;;;;;;;-1.36;97.38;101983.72;4958275;29;20023;-73
2022/01/26 04:42:46;;;;;;;27.27;13.43;;;;;;;-1.24;96.90;101979.19;4958228;29;20047;-72
2022/01/26 04:45:32;;;;;;;24.15;12.60;;;;;;;-1.08;97.38;101985.97;4958508;28;20039;-72
2022/01/26 04:48:19;;;;;;;26.75;12.77;;;;;;;-1.29;97.68;101980.66;4958825;28;20097;-73
2022/01/26 04:51:04;;;;;;;23.05;13.23;;;;;;;-1.29;97.73;101978.06;4957953;29;20020;-73
2022/01/26 04:53:50;;;;;;;26.40;13.30;;;;;;;-1.22;97.56;101984.41;4958200;29;20039;-72
2022/01/26 04:56:36;;;;;;;22.88;12.00;;;;;;;-1.18;97.92;101988.88;4956677;28;20035;-72
2022/01/26 04:59:22;;;;;;;25.98;12.93;;;;;;;-1.28;97.45;101984.97;4957617;29;20055;-73
2022/01/26 05:02:20;;;;;;;30.02;14.30;;;;;;;-1.14;96.68;101986.56;5092213;28;20389;-73
2022/01/26 05:12:57;;;;;;;31.40;14.52;;;;;;;-1.04;96.00;101981.03;5705419;22;20062;-72
2022/01/26 05:15:43;;;;;;;29.67;14.05;;;;;;;-1.05;94.19;101987.00;4990933;28;20431;-72
2022/01/26 05:18:29;;;;;;;25.30;13.00;;;;;;;-1.09;94.17;101976.47;4992785;28;20081;-71
2022/01/26 05:21:15;;;;;;;29.27;13.95;;;;;;;-1.20;94.35;101978.53;4991490;28;20035;-71
2022/01/26 05:24:01;;;;;;;24.13;13.13;;;;;;;-1.09;93.83;101984.19;4992447;28;20053;-72
2022/01/26 05:26:47;;;;;;;27.48;13.75;;;;;;;-1.14;92.40;101981.41;4992015;28;20448;-72
2022/01/26 05:29:33;;;;;;;26.83;13.20;;;;;;;-1.13;92.67;101979.69;4992126;28;20034;-71
2022/01/26 05:32:19;;;;;;;24.98;12.75;;;;;;;-1.07;92.31;101974.88;4991843;28;20026;-71
2022/01/26 05:35:05;;;;;;;22.88;11.88;;;;;;;-1.26;92.28;101969.63;4992870;28;20046;-71
2022/01/26 05:37:51;;;;;;;24.77;12.68;;;;;;;-1.21;92.85;101973.31;4991887;28;20031;-72
2022/01/26 05:40:37;;;;;;;26.20;13.48;;;;;;;-1.14;93.37;101968.56;4992406;28;20114;-72
2022/01/26 05:43:22;;;;;;;22.65;11.63;;;;;;;-1.33;95.44;101970.16;4991547;28;20220;-72
2022/01/26 05:46:13;;;;;;;23.40;12.85;;;;;;;-0.98;93.40;101965.94;4991431;28;20027;-72
2022/01/26 05:48:59;;;;;;;26.05;12.23;;;;;;;-0.98;92.78;101965.94;4992180;28;20033;-73
2022/01/26 05:51:46;;;;;;;28.05;13.82;;;;;;;-1.04;93.31;101955.31;4990983;28;20348;-71
2022/01/26 05:54:32;;;;;;;26.58;13.02;;;;;;;-1.02;93.63;101951.16;4991385;28;20034;-72
2022/01/26 05:57:17;;;;;;;23.17;13.15;;;;;;;-0.98;93.87;101958.22;4991218;28;20293;-71
2022/01/26 06:00:05;;;;;;;24.58;13.18;;;;;;;-0.98;93.81;101957.31;4991091;28;20121;-72
2022/01/26 06:02:51;;;;;;;23.10;12.68;;;;;;;-0.92;92.76;101952.47;4991501;28;20030;-72
2022/01/26 06:05:37;;;;;;;23.67;12.05;;;;;;;-0.98;93.22;101947.91;4990986;28;20037;-73
2022/01/26 06:08:24;;;;;;;27.05;13.07;;;;;;;-1.01;93.45;101955.47;4991309;28;20360;-71
2022/01/26 06:11:10;;;;;;;26.38;12.65;;;;;;;-0.91;92.50;101949.09;4991451;28;20044;-72
2022/01/26 06:13:56;;;;;;;24.45;12.65;;;;;;;-0.85;93.18;101952.84;4977437;28;20105;-72
2022/01/26 06:16:41;;;;;;;24.67;12.75;;;;;;;-0.68;91.22;101945.94;4978592;28;20062;-72
2022/01/26 06:19:27;;;;;;;24.00;13.02;;;;;;;-0.88;92.55;101954.38;4978115;28;20106;-71
2022/01/26 06:22:13;;;;;;;25.42;13.52;;;;;;;-0.71;90.99;101949.25;4977388;28;20031;-73
2022/01/26 06:25:04;;;;;;;32.80;13.45;;;;;;;-0.65;90.54;101962.38;4977267;28;20030;-73
2022/01/26 06:27:54;;;;;;;30.58;14.43;;;;;;;-0.71;92.22;101950.91;4977408;28;20066;-73
2022/01/26 06:30:44;;;;;;;27.00;13.85;;;;;;;-0.81;92.66;101951.28;4978367;28;20058;-73
2022/01/26 06:33:33;;;;;;;29.92;14.27;;;;;;;-0.73;93.13;101950.84;4977407;28;20034;-73
2022/01/26 06:36:19;;;;;;;31.70;15.63;;;;;;;-0.72;91.52;101944.88;4978816;28;20118;-72
2022/01/26 06:39:05;;;;;;;29.45;14.65;;;;;;;-0.65;91.90;101939.22;4976810;28;20049;-73
2022/01/26 06:41:54;;;;;;;32.97;16.00;;;;;;;-0.68;91.80;101933.91;4978068;28;20432;-73
2022/01/26 06:45:16;;;;;;;27.92;15.15;;;;;;;-0.74;92.09;101937.91;4977597;28;20027;-73
2022/01/26 06:48:26;;;;;;;32.70;16.42;;;;;;;-0.11;89.28;101923.69;4977607;28;20089;-74
2022/01/26 06:51:02;;;;;;;29.55;14.32;;;;;;;-0.01;86.48;101923.28;4977608;28;20392;-71
2022/01/26 06:53:47;;;;;;;31.15;15.48;;;;;;;0.25;85.65;101927.00;4977256;28;20066;-73
2022/01/26 06:56:33;;;;;;;28.10;14.02;;;;;;;0.31;83.96;101929.81;4977275;28;20455;-73
2022/01/26 06:59:24;;;;;;;27.15;13.65;;;;;;;0.38;84.27;101934.44;4977409;28;20050;-73
2022/01/26 07:02:10;;;;;;;23.67;13.38;;;;;;;-0.13;87.01;101927.00;4976854;28;20035;-74
2022/01/26 07:10:22;;;;;;;28.65;12.65;;;;;;;-0.03;85.64;101945.50;5900291;22;20294;-72
2022/01/26 07:13:08;;;;;;;25.45;12.75;;;;;;;0.15;84.80;101948.03;4976936;28;20128;-73
2022/01/26 07:22:02;;;;;;;22.58;11.40;;;;;;;0.21;83.15;101966.34;4976984;28;20023;-73
2022/01/26 07:24:47;;;;;;;26.88;12.75;;;;;;;0.39;83.59;101958.53;4975972;28;20024;-74
2022/01/26 07:27:33;;;;;;;23.73;12.68;;;;;;;0.56;82.60;101952.38;4976469;28;20104;-73
2022/01/26 07:30:19;;;;;;;24.05;11.90;;;;;;;0.76;81.24;101962.69;4976693;28;20141;-72
2022/01/26 07:33:06;;;;;;;31.90;13.35;;;;;;;0.91;81.48;101959.84;4976068;28;20058;-73
2022/01/26 07:35:54;;;;;;;25.27;12.00;;;;;;;0.81;80.83;101962.91;4976248;28;20073;-72
2022/01/26 07:38:40;;;;;;;22.67;12.15;;;;;;;0.91;81.93;101968.50;4976149;28;20344;-73
2022/01/26 07:41:26;;;;;;;22.70;12.40;;;;;;;0.76;82.41;101960.13;4975618;28;20181;-72
2022/01/26 07:44:11;;;;;;;28.25;13.15;;;;;;;0.90;82.16;101955.53;4976054;28;20057;-73
2022/01/26 07:46:57;;;;;;;23.10;12.48;;;;;;;1.17;81.22;101954.97;4976322;28;20152;-73
2022/01/26 07:49:43;;;;;;;26.13;12.88;;;;;;;1.04;80.99;101959.56;4976325;28;20031;-73
2022/01/26 07:52:33;;;;;;;24.73;13.10;;;;;;;0.94;81.13;101947.97;4975801;28;20392;-72
2022/01/26 07:55:21;;;;;;;30.58;14.70;;;;;;;1.65;78.89;101949.06;4975518;28;20049;-73
2022/01/26 07:58:09;;;;;;;29.23;14.32;;;;;;;1.50;78.47;101942.47;4976056;28;20023;-73
2022/01/26 08:00:55;;;;;;;25.88;13.85;;;;;;;1.56;77.92;101943.56;4975979;28;20027;-72
2022/01/26 08:03:40;;;;;;;24.38;13.25;;;;;;;1.39;79.53;101943.75;4975654;28;20041;-72
2022/01/26 08:06:26;;;;;;;23.85;13.18;;;;;;;1.46;79.96;101933.72;4976421;28;20062;-74
2022/01/26 08:09:12;;;;;;;28.48;13.57;;;;;;;1.33;80.12;101936.63;4975454;28;20105;-73
2022/01/26 08:11:58;;;;;;;24.08;13.57;;;;;;;1.88;78.00;101937.03;4975896;28;20043;-72
2022/01/26 08:17:47;;;;;;;27.25;14.23;;;;;;;1.54;78.73;101940.06;5294968;22;20484;-73
2022/01/26 08:20:33;;;;;;;29.92;14.38;;;;;;;1.44;77.40;101931.91;4974867;28;20034;-74
2022/01/26 08:23:21;;;;;;;25.50;13.65;;;;;;;1.58;78.15;101941.94;4974806;28;20045;-73
2022/01/26 08:26:07;;;;;;;25.13;13.38;;;;;;;1.74;76.83;101931.38;4974938;28;20069;-73
2022/01/26 08:28:56;;;;;;;28.08;13.80;;;;;;;1.75;77.78;101930.53;4975510;28;20070;-73
2022/01/26 08:31:42;;;;;;;26.92;13.70;;;;;;;1.90;77.47;101945.72;4975464;28;20432;-73
2022/01/26 08:45:32;;;;;;;27.75;14.98;;;;;;;2.43;77.90;101940.75;6047341;22;20053;-72
2022/01/26 08:48:18;;;;;;;28.75;14.38;;;;;;;2.35;77.60;101949.94;4956293;28;20074;-72
2022/01/26 08:51:04;;;;;;;30.45;14.95;;;;;;;1.57;79.99;101937.56;4955961;28;20098;-72
2022/01/26 08:53:50;;;;;;;24.90;14.27;;;;;;;1.88;80.04;101948.25;4955791;29;20031;-72
2022/01/26 08:56:36;;;;;;;27.48;13.75;;;;;;;1.88;81.03;101943.06;4955487;28;20023;-72
2022/01/26 08:59:24;;;;;;;30.67;13.73;;;;;;;1.91;81.02;101942.28;4956358;29;20074;-76
2022/01/26 09:02:09;;;;;;;24.83;13.70;;;;;;;2.26;79.27;101940.19;4955295;28;20051;-74
2022/01/26 09:07:49;;;;;;;26.23;14.55;;;;;;;1.99;80.72;101944.34;5415432;22;20063;-72
2022/01/26 09:10:37;;;;;;;27.75;14.80;;;;;;;2.19;82.46;101943.38;4974886;28;20101;-72
2022/01/26 09:13:24;;;;;;;29.20;15.25;;;;;;;2.77;78.57;101946.25;4974993;28;20022;-73
2022/01/26 09:16:09;;;;;;;29.58;15.43;;;;;;;2.74;77.48;101948.72;4975156;28;20428;-74
2022/01/26 09:19:02;;;;;;;26.17;13.50;;;;;;;2.49;77.30;101946.16;4975592;28;20104;-72
2022/01/26 09:21:48;;;;;;;25.17;13.98;;;;;;;2.37;78.46;101943.13;4974653;28;20041;-72
2022/01/26 09:24:36;;;;;;;25.30;14.25;;;;;;;2.66;78.86;101938.09;4974948;28;20026;-72
2022/01/26 09:27:22;;;;;;;26.42;13.60;;;;;;;2.47;80.25;101935.75;4974639;28;20106;-72
2022/01/26 09:30:09;;;;;;;29.35;14.30;;;;;;;2.71;78.57;101931.41;4974733;28;20054;-73
2022/01/26 09:32:54;;;;;;;24.55;13.50;;;;;;;2.96;78.28;101931.38;4974618;28;20027;-72
2022/01/26 09:35:40;;;;;;;27.48;14.35;;;;;;;2.89;77.47;101944.94;4974693;28;20371;-72
2022/01/26 09:38:26;;;;;;;27.88;14.43;;;;;;;2.53;77.21;101943.69;4975098;28;20026;-71
2022/01/26 09:41:12;;;;;;;24.40;13.73;;;;;;;2.76;77.33;101940.19;4974532;28;20023;-71
2022/01/26 09:44:02;;;;;;;28.38;13.10;;;;;;;2.76;77.12;101944.47;4974873;28;20090;-72
2022/01/26 09:46:53;;;;;;;24.27;13.68;;;;;;;3.18;75.81;101932.94;4974721;28;20101;-72
2022/01/26 09:49:40;;;;;;;27.83;14.70;;;;;;;3.01;76.29;101941.88;4978705;28;20026;-71
2022/01/26 09:52:33;;;;;;;30.15;14.80;;;;;;;3.41;75.94;101927.63;4978665;28;20371;-71
2022/01/26 09:55:19;;;;;;;36.67;15.48;;;;;;;3.27;75.37;101934.09;4978668;28;20034;-70
2022/01/26 09:58:05;;;;;;;27.52;14.55;;;;;;;3.41;76.16;101930.22;4978256;28;20035;-71
2022/01/26 10:00:58;;;;;;;31.42;15.00;;;;;;;3.36;77.02;101929.19;4978362;28;20031;-72
2022/01/26 10:07:46;;;;;;;25.92;14.73;;;;;;;3.24;75.83;101915.88;5980306;23;20029;31
2022/01/26 10:19:54;;;;;;;28.00;14.07;;;;;;;3.35;75.50;101891.19;4938445;29;20406;-71
2022/01/26 10:22:41;;;;;;;28.08;14.43;;;;;;;3.71;74.97;101900.03;4952863;29;20384;-71
2022/01/26 10:25:26;;;;;;;27.48;14.52;;;;;;;4.21;73.60;101904.91;4939648;29;20457;-72
2022/01/26 10:31:55;;;;;;;25.02;13.88;;;;;;;4.11;71.80;101899.44;4937534;29;20467;-73
2022/01/26 10:34:41;;;;;;;25.98;14.20;;;;;;;4.06;72.78;101894.09;4939165;29;20043;-72
2022/01/26 10:37:27;;;;;;;25.80;14.45;;;;;;;3.51;73.39;101884.75;4938558;29;20035;-72
2022/01/26 10:40:40;;;;;;;25.75;13.15;;;;;;;3.33;72.14;101884.16;4938266;29;20036;-72
2022/01/26 10:43:29;;;;;;;32.20;14.85;;;;;;;3.78;73.21;101881.22;4938183;29;20067;-72
2022/01/26 10:46:26;;;;;;;32.08;15.50;;;;;;;4.26;71.76;101879.09;4938104;29;20349;-72
2022/01/26 10:49:31;;;;;;;29.08;15.25;;;;;;;4.20;71.42;101874.63;4938484;29;20039;-72
2022/01/26 10:52:31;;;;;;;27.73;14.50;;;;;;;4.47;70.27;101869.28;4938452;29;20043;-72
2022/01/26 10:55:16;;;;;;;24.55;13.98;;;;;;;4.26;68.61;101877.38;4951437;29;20024;-71
2022/01/26 10:58:04;;;;;;;27.67;14.38;;;;;;;4.12;69.80;101872.66;4950586;29;20027;-72
2022/01/26 11:00:52;;;;;;;26.65;14.48;;;;;;;4.25;69.45;101875.63;4938124;29;20470;-73
2022/01/26 11:03:38;;;;;;;21.92;13.15;;;;;;;4.44;67.82;101872.66;4938299;29;20031;-74
2022/01/26 11:06:25;;;;;;;26.23;14.02;;;;;;;4.49;67.30;101873.66;4938445;29;20031;-73
2022/01/26 11:09:15;;;;;;;31.02;14.57;;;;;;;5.15;67.27;101862.28;4937234;29;20062;-73
2022/01/26 11:12:02;;;;;;;24.30;13.65;;;;;;;4.54;67.38;101861.66;4938308;29;20027;-72
2022/01/26 11:14:51;;;;;;;37.22;14.70;;;;;;;4.88;66.90;101856.47;4938040;29;20035;-73
2022/01/26 11:17:42;;;;;;;23.17;13.68;;;;;;;4.99;65.52;101851.53;4938675;29;20158;-72
2022/01/26 11:20:35;;;;;;;25.55;14.20;;;;;;;4.54;65.92;101848.69;4938379;29;20071;-73
2022/01/26 11:23:33;;;;;;;25.55;12.85;;;;;;;4.91;66.23;101853.91;4938414;29;20478;-71
2022/01/26 11:26:24;;;;;;;27.60;13.60;;;;;;;5.24;64.78;101840.84;4938053;29;20043;-72
2022/01/26 11:29:33;;;;;;;25.98;13.45;;;;;;;4.82;64.83;101839.84;4938097;29;20429;-72
2022/01/26 11:32:28;;;;;;;23.17;12.85;;;;;;;5.10;64.59;101832.72;4937413;29;20031;-72
2022/01/26 11:35:14;;;;;;;24.00;13.52;;;;;;;4.86;63.42;101834.78;4950039;29;20090;-72
2022/01/26 11:38:16;;;;;;;24.08;13.20;;;;;;;5.13;64.10;101826.72;4937731;29;20361;-72
2022/01/26 11:47:32;;;;;;;23.80;12.23;;;;;;;5.23;61.51;101821.75;4937275;29;20019;-73
2022/01/26 11:50:21;;;;;;;24.50;13.40;;;;;;;5.16;61.90;101822.47;4936966;29;20031;-72
2022/01/26 11:53:15;;;;;;;22.65;12.27;;;;;;;4.89;61.77;101829.66;4937187;29;20442;-73
2022/01/26 11:56:18;;;;;;;24.10;12.32;;;;;;;4.79;61.81;101819.88;4949938;29;20043;-72
2022/01/26 11:59:03;;;;;;;21.25;12.27;;;;;;;5.05;61.38;101812.69;4937377;29;20119;-73
2022/01/26 12:01:57;;;;;;;21.25;12.60;;;;;;;5.06;61.35;101810.13;4937110;29;20042;-72
2022/01/26 12:05:13;;;;;;;22.05;12.98;;;;;;;5.21;61.58;101812.19;4937525;29;20428;-72
2022/01/26 12:08:00;;;;;;;21.35;11.77;;;;;;;4.92;61.73;101821.94;4936665;29;20051;-72
2022/01/26 12:14:28;;;;;;;21.45;12.30;;;;;;;4.99;61.93;101815.16;4937781;29;20027;-72
2022/01/26 12:17:25;;;;;;;22.88;13.05;;;;;;;5.19;61.58;101806.09;4936435;29;20020;-73
2022/01/26 12:32:07;;;;;;;20.23;10.43;;;;;;;4.97;61.25;101812.53;4936793;29;20038;-73
2022/01/26 12:44:10;;;;;;;18.98;11.57;;;;;;;5.14;62.25;101808.56;5032899;28;20509;-74
2022/01/26 12:46:56;;;;;;;22.70;11.73;;;;;;;5.68;61.81;101802.75;5033388;28;20021;-73
2022/01/26 12:49:42;;;;;;;20.25;11.85;;;;;;;5.53;61.57;101803.34;5032657;28;20033;-73
2022/01/26 12:52:29;;;;;;;19.85;11.55;;;;;;;5.21;62.64;101797.47;5034483;28;20035;-73
2022/01/26 12:55:24;;;;;;;22.13;12.45;;;;;;;5.90;61.40;101798.03;5033892;28;20029;-74
2022/01/26 12:58:09;;;;;;;20.35;11.75;;;;;;;5.79;60.90;101793.44;5033607;28;20026;-73
2022/01/26 13:01:04;;;;;;;20.55;11.77;;;;;;;5.43;61.99;101790.13;5033869;28;20021;-72
2022/01/26 13:03:56;;;;;;;21.48;11.63;;;;;;;5.52;62.07;101792.91;5033663;28;20064;-72
2022/01/26 13:06:53;;;;;;;19.85;11.38;;;;;;;5.70;62.17;101783.72;5039895;28;20163;-73
2022/01/26 13:09:41;;;;;;;21.73;12.63;;;;;;;5.86;61.51;101798.81;5052926;28;20040;-74
2022/01/26 13:12:37;;;;;;;21.13;11.95;;;;;;;5.51;61.57;101798.94;5053669;28;20400;-73
2022/01/26 13:15:37;;;;;;;20.73;10.85;;;;;;;5.40;61.35;101804.78;5038726;28;20460;-74
2022/01/26 13:37:28;;;;;;;25.15;13.05;;;;;;;5.79;60.96;101811.66;5057088;28;20059;-73
2022/01/26 13:40:19;;;;;;;24.70;13.07;;;;;;;6.05;61.48;101815.63;5057304;28;20151;-74
2022/01/26 13:59:00;;;;;;;20.23;11.60;;;;;;;6.20;61.94;101795.09;5056388;28;20126;-74
2022/01/26 14:01:48;;;;;;;23.92;12.10;;;;;;;6.39;60.99;101791.97;5056073;28;20025;-73
2022/01/26 14:04:34;;;;;;;24.35;11.88;;;;;;;6.21;60.90;101789.03;5057589;28;20036;-73
2022/01/26 14:07:20;;;;;;;19.02;11.20;;;;;;;6.10;61.55;101788.00;5056531;28;20028;-73
2022/01/26 14:10:06;;;;;;;22.05;11.85;;;;;;;6.42;60.30;101791.97;5043037;28;20025;-73
2022/01/26 14:12:52;;;;;;;20.52;11.82;;;;;;;6.47;60.60;101790.34;5056030;28;20039;-73
2022/01/26 14:15:45;;;;;;;18.52;11.48;;;;;;;6.11;61.23;101806.19;5042706;28;20416;-73
2022/01/26 14:19:01;;;;;;;20.08;12.02;;;;;;;5.83;61.51;101806.53;5042334;28;20087;-74
2022/01/26 14:25:04;;;;;;;26.02;13.00;;;;;;;6.17;61.62;101789.81;5055876;28;20032;-72
2022/01/26 14:27:53;;;;;;;20.75;12.05;;;;;;;5.97;62.00;101786.88;5056854;28;20040;-73
2022/01/26 14:31:09;;;;;;;21.30;11.60;;;;;;;6.29;60.90;101784.84;5057244;28;20430;-74
2022/01/26 15:12:19;;;;;;;21.75;11.30;;;;;;;5.31;65.54;101796.81;5056531;28;20035;-74
2022/01/26 15:50:48;;;;;;;40.35;19.80;;;;;;;4.99;70.48;101809.97;5055187;28;20025;-73
2022/01/26 15:57:56;;;;;;;39.08;20.42;;;;;;;5.00;71.37;101820.41;5994114;22;20053;-72
2022/01/26 16:12:57;;;;;;;46.72;23.85;;;;;;;5.55;71.16;101822.44;5055085;28;20096;-72
2022/01/26 16:35:19;;;;;;;59.78;29.35;;;;;;;5.12;74.36;101831.06;5055174;28;20033;-73
2022/01/26 18:51:53;;;;;;;37.83;20.13;;;;;;;4.29;98.18;101897.31;5056485;28;20021;-73
2022/01/26 18:54:42;;;;;;;40.65;21.85;;;;;;;4.44;97.14;101888.25;5042262;28;20024;-72
2022/01/26 18:57:28;;;;;;;36.90;18.98;;;;;;;4.54;96.88;101885.03;5056566;28;20110;-72
2022/01/26 19:00:14;;;;;;;35.58;18.95;;;;;;;4.27;99.32;101884.31;5055734;28;20025;-72
2022/01/26 19:03:00;;;;;;;33.35;18.70;;;;;;;4.29;100.00;101890.44;5055487;28;20031;-73
2022/01/26 19:05:46;;;;;;;35.83;18.85;;;;;;;4.22;100.00;101890.25;5044060;28;20040;-72
2022/01/26 19:08:32;;;;;;;34.40;18.60;;;;;;;4.37;98.49;101896.69;5055794;28;20044;-72
2022/01/26 19:11:20;;;;;;;36.42;18.90;;;;;;;4.22;100.00;101890.25;5055843;28;20066;-73
2022/01/26 19:14:06;;;;;;;37.03;19.10;;;;;;;4.37;99.71;101888.03;5055250;28;20033;-72
2022/01/26 19:17:03;;;;;;;34.20;18.23;;;;;;;4.07;100.00;101888.06;5041602;28;20104;-74
2022/01/26 19:25:58;;;;;;;36.95;19.45;;;;;;;4.25;100.00;101886.00;5054842;28;20144;-72
2022/01/26 19:28:47;;;;;;;35.35;19.38;;;;;;;3.93;100.00;101885.94;5043800;28;20111;-74
2022/01/26 19:44:04;;;;;;;40.72;20.83;;;;;;;3.70;100.00;101897.41;5055104;28;20104;-72
2022/01/26 19:52:49;;;;;;;39.15;21.65;;;;;;;3.54;100.00;101903.84;5055357;28;20021;-73
2022/01/26 19:55:36;;;;;;;38.50;20.80;;;;;;;3.22;100.00;101894.22;5040711;28;20040;-72
2022/01/26 19:58:22;;;;;;;39.92;20.92;;;;;;;3.16;100.00;101898.31;5055177;28;20036;-73
2022/01/26 20:01:07;;;;;;;38.03;20.58;;;;;;;3.16;100.00;101894.03;5054802;28;20116;-73
2022/01/26 20:03:53;;;;;;;35.70;20.35;;;;;;;3.25;100.00;101896.91;5054884;28;20413;-72
2022/01/26 20:06:40;;;;;;;38.90;20.70;;;;;;;3.16;100.00;101903.50;5039912;28;20033;-73
2022/01/26 20:09:31;;;;;;;39.03;21.15;;;;;;;3.06;100.00;101909.25;5040271;28;20043;-72
2022/01/26 20:15:21;;;;;;;40.75;21.70;;;;;;;2.98;100.00;101916.75;5054833;28;20100;-73
2022/01/26 20:18:07;;;;;;;42.25;22.10;;;;;;;2.95;100.00;101921.84;5040926;28;20461;-72
2022/01/26 20:20:59;;;;;;;41.13;21.80;;;;;;;2.84;100.00;101925.78;5054434;28;20430;-72
2022/01/26 20:23:48;;;;;;;44.85;21.98;;;;;;;3.06;100.00;101912.69;5041538;28;20025;-73
2022/01/26 20:26:34;;;;;;;43.53;21.88;;;;;;;2.68;100.00;101926.13;5054025;28;20442;-73
2022/01/26 20:29:29;;;;;;;45.60;22.90;;;;;;;2.64;100.00;101921.66;5039888;28;20464;-73
2022/01/26 20:32:15;;;;;;;45.88;23.83;;;;;;;2.92;100.00;101921.75;5053629;28;20025;-72
2022/01/26 20:35:01;;;;;;;45.38;23.65;;;;;;;2.76;100.00;101927.25;5040161;28;20163;-73
2022/01/26 20:37:47;;;;;;;41.65;22.00;;;;;;;2.70;100.00;101921.84;5055712;28;20353;-72
2022/01/26 20:40:33;;;;;;;40.88;22.58;;;;;;;3.01;100.00;101927.19;5054971;28;20419;-72
2022/01/26 20:43:19;;;;;;;41.38;21.45;;;;;;;2.76;100.00;101932.41;5054492;28;20072;-72
2022/01/26 20:46:05;;;;;;;40.65;21.90;;;;;;;2.77;100.00;101930.72;5053757;28;20024;-72
2022/01/26 20:48:51;;;;;;;42.20;22.08;;;;;;;2.66;100.00;101932.06;5054006;28;20365;-71
2022/01/26 20:51:37;;;;;;;45.35;23.23;;;;;;;2.54;100.00;101935.13;5053774;28;20554;-72
2022/01/26 20:54:23;;;;;;;46.35;23.77;;;;;;;2.92;100.00;101938.97;5053754;28;20051;-71
2022/01/26 20:57:09;;;;;;;41.75;22.95;;;;;;;2.64;100.00;101941.47;5053829;28;20036;-71
2022/01/26 20:59:55;;;;;;;47.78;22.48;;;;;;;2.74;100.00;101946.13;5040067;28;20040;-71
2022/01/26 21:02:42;;;;;;;42.22;22.85;;;;;;;2.87;100.00;101948.28;5052750;28;20029;-71
2022/01/26 21:05:28;;;;;;;39.85;21.63;;;;;;;2.87;100.00;101945.72;5067657;28;20090;-70
2022/01/26 21:08:16;;;;;;;38.85;21.83;;;;;;;2.63;100.00;101948.38;5070540;28;20115;-71
2022/01/26 21:11:02;;;;;;;40.78;22.02;;;;;;;2.75;100.00;101942.72;5054222;28;20453;-72
2022/01/26 21:13:54;;;;;;;39.85;21.92;;;;;;;2.62;100.00;101946.59;5054542;28;20021;-72
2022/01/26 21:16:40;;;;;;;44.97;22.00;;;;;;;2.41;100.00;101935.50;5053542;28;20032;-72
2022/01/26 21:19:31;;;;;;;43.53;22.63;;;;;;;2.32;100.00;101939.47;5038654;28;20373;-72